createdAt,value
2018-09-20T00:09:56.572Z,64.6
2018-09-20T00:19:57.000Z,65.2
2018-09-20T00:40:00.295Z,66
2018-09-20T00:50:01.721Z,66.5
2018-09-20T01:10:04.278Z,67.5
2018-09-20T01:20:04.638Z,67.8
2018-09-20T01:30:05.036Z,68
2018-09-20T01:40:05.507Z,68.3
2018-09-20T02:00:09.729Z,68.7
2018-09-20T02:20:12.829Z,69.2
2018-09-20T02:30:12.874Z,69.3
2018-09-20T02:40:12.879Z,69.5
2018-09-20T02:50:13.568Z,69.6
2018-09-20T03:10:16.588Z,69.8
2018-09-20T03:20:17.546Z,70.1
2018-09-20T03:30:18.025Z,70
2018-09-20T03:40:18.128Z,70
2018-09-20T04:00:21.410Z,70.5
2018-09-20T04:10:21.702Z,70.8
2018-09-20T04:20:21.873Z,70.9
2018-09-20T04:30:21.785Z,71.3
2018-09-20T04:40:21.985Z,71.5
2018-09-20T04:50:22.089Z,71.7
2018-09-20T05:00:22.185Z,71.7
2018-09-20T05:10:22.688Z,71.9
2018-09-20T05:20:23.029Z,71.8
2018-09-20T05:30:23.665Z,71.8
2018-09-20T05:40:24.114Z,70.8
2018-09-20T05:50:24.766Z,69.7
2018-09-20T06:00:25.152Z,68.6
2018-09-20T06:10:26.699Z,67
2018-09-20T06:20:28.132Z,65.7
2018-09-20T06:30:28.564Z,65.8
2018-09-20T06:40:28.859Z,65.4
2018-09-20T06:50:29.974Z,62.6
2018-09-20T07:00:30.819Z,60.7
2018-09-20T07:10:32.672Z,59.1
2018-09-20T07:20:33.339Z,58.9
2018-09-20T07:30:33.889Z,57.6
2018-09-20T07:40:34.177Z,57.4
2018-09-20T07:50:34.544Z,56.5
2018-09-20T08:00:35.133Z,55.7
2018-09-20T08:10:35.346Z,54.9
2018-09-20T08:20:35.840Z,55.3
2018-09-20T08:30:36.266Z,55.5
2018-09-20T08:40:36.980Z,55.5
2018-09-20T08:50:37.434Z,55.6
2018-09-20T09:00:37.596Z,55.2
2018-09-20T09:10:37.991Z,55.4
2018-09-20T09:30:40.917Z,54.6
2018-09-20T09:40:41.568Z,53.3
2018-09-20T09:50:42.007Z,52.7
2018-09-20T10:00:42.632Z,51.4
2018-09-20T10:20:44.625Z,50.4
2018-09-20T10:30:45.016Z,50.6
2018-09-20T10:40:45.248Z,50.9
2018-09-20T10:50:45.484Z,50.7
2018-09-20T11:00:46.149Z,49.6
2018-09-20T11:10:46.443Z,49.6
2018-09-20T11:20:46.939Z,48.8
2018-09-20T11:30:47.541Z,48.4
2018-09-20T11:40:47.769Z,46
2018-09-20T11:50:48.632Z,45.9
2018-09-20T12:00:48.858Z,46.1
2018-09-20T12:10:49.435Z,45.8
2018-09-20T12:20:50.013Z,45.3
2018-09-20T12:30:50.382Z,44.9
2018-09-20T12:40:50.708Z,45.2
2018-09-20T12:50:50.803Z,45.4
2018-09-20T13:00:51.271Z,45.1
2018-09-20T13:10:51.681Z,45.9
2018-09-20T13:20:51.932Z,44
2018-09-20T13:30:52.024Z,44.8
2018-09-20T13:40:52.463Z,44.7
2018-09-20T13:50:52.931Z,44.9
2018-09-20T14:00:53.490Z,44.4
2018-09-20T14:10:53.995Z,43.4
2018-09-20T14:20:54.301Z,42.7
2018-09-20T14:30:54.784Z,43.5
2018-09-20T14:40:55.127Z,43.4
2018-09-20T14:50:55.655Z,43.2
2018-09-20T15:00:55.956Z,43.7
2018-09-20T15:10:56.249Z,43.9
2018-09-20T15:20:56.300Z,43.6
2018-09-20T15:30:56.823Z,43.8
2018-09-20T15:40:57.263Z,44.1
2018-09-20T15:50:57.741Z,44.7
2018-09-20T16:00:57.975Z,45.2
2018-09-20T16:10:58.189Z,45.6
2018-09-20T16:20:58.602Z,46
2018-09-20T16:30:58.833Z,46.6
2018-09-20T16:40:58.867Z,46.8
2018-09-20T16:50:59.021Z,47.3
2018-09-20T17:00:59.428Z,47.5
2018-09-20T17:10:59.547Z,48.2
2018-09-20T17:21:00.221Z,49
2018-09-20T17:31:00.715Z,49.4
2018-09-20T17:41:01.105Z,49.9
2018-09-20T17:51:01.230Z,50
2018-09-20T18:01:01.493Z,50
2018-09-20T18:11:01.778Z,50.6
2018-09-20T18:21:02.038Z,51.2
2018-09-20T18:31:02.212Z,51.2
2018-09-20T18:41:02.394Z,51.4
2018-09-20T18:51:02.348Z,52.1
2018-09-20T19:01:02.791Z,52.4
2018-09-20T19:11:03.154Z,53.4
2018-09-20T19:21:03.312Z,54.6
2018-09-20T19:31:03.607Z,55.6
2018-09-20T19:41:03.703Z,56.4
2018-09-20T19:51:05.274Z,56.4
2018-09-20T20:01:05.615Z,56.1
2018-09-20T20:11:06.129Z,54.7
2018-09-20T20:21:09.558Z,53.8
2018-09-20T20:31:09.977Z,53.1
2018-09-20T20:41:10.338Z,53.1
2018-09-20T20:51:10.557Z,52.9
2018-09-20T21:11:13.176Z,52.2
2018-09-20T21:21:15.436Z,52.4
2018-09-20T21:31:16.304Z,52.3
2018-09-20T21:41:16.897Z,52.2
2018-09-20T21:51:17.572Z,51.8
2018-09-20T22:01:17.853Z,51.3
2018-09-20T22:11:18.766Z,51.2
2018-09-20T22:31:22.093Z,51.4
2018-09-20T22:41:22.388Z,51.3
2018-09-20T22:51:22.846Z,51.3
2018-09-20T23:01:23.401Z,51.5
2018-09-20T23:11:23.470Z,52
2018-09-20T23:21:24.001Z,52.2
2018-09-20T23:31:24.300Z,52.3
2018-09-20T23:41:24.720Z,52.5
2018-09-20T23:51:24.849Z,52.5
